createdAt,value
2024-01-15T00:00:36.019Z,79.45
2024-01-15T00:03:03.924Z,79.73
2024-01-15T00:05:30.993Z,77.79
2024-01-15T00:07:58.035Z,78.09
2024-01-15T00:10:25.188Z,78.44
2024-01-15T00:12:52.202Z,79.48
2024-01-15T00:15:19.223Z,78.97
2024-01-15T00:17:47.264Z,77.69
2024-01-15T00:20:14.357Z,78.77
2024-01-15T00:22:41.368Z,77.99
2024-01-15T00:26:35.828Z,78.18
2024-01-15T00:29:33.770Z,77.98
2024-01-15T00:32:00.719Z,78.57
2024-01-15T00:34:27.752Z,80.54
2024-01-15T00:36:55.418Z,79.03
2024-01-15T00:39:22.361Z,78.06
2024-01-15T00:41:49.366Z,76.53
2024-01-15T00:44:16.387Z,77.06
2024-01-15T00:46:47.306Z,77.78
2024-01-15T00:49:15.033Z,77.13
2024-01-15T00:51:42.457Z,76.77
2024-01-15T00:54:09.838Z,77.10
2024-01-15T00:56:38.263Z,78.25
2024-01-15T00:59:05.147Z,76.50
2024-01-15T01:01:32.777Z,77.16
2024-01-15T01:03:59.864Z,79.88
2024-01-15T01:06:26.933Z,78.01
2024-01-15T01:08:53.825Z,77.98
2024-01-15T01:11:20.810Z,78.45
2024-01-15T01:13:47.734Z,76.57
2024-01-15T01:16:14.575Z,77.90
2024-01-15T01:18:41.624Z,79.04
2024-01-15T01:21:08.632Z,78.47
2024-01-15T01:23:35.614Z,77.45
2024-01-15T01:26:02.572Z,78.19
2024-01-15T01:28:29.622Z,77.45
2024-01-15T01:30:56.687Z,76.38
2024-01-15T01:33:23.751Z,76.19
2024-01-15T01:35:50.799Z,77.73
2024-01-15T01:38:17.814Z,78.19
2024-01-15T01:40:44.756Z,78.14
2024-01-15T01:43:11.756Z,76.43
2024-01-15T01:45:39.867Z,75.07
2024-01-15T01:48:07.676Z,76.29
2024-01-15T01:50:34.885Z,75.77
2024-01-15T01:53:05.482Z,75.83
2024-01-15T01:55:34.693Z,76.49
2024-01-15T01:58:03.182Z,76.27
2024-01-15T02:00:32.430Z,76.85
2024-01-15T02:02:59.622Z,75.26
2024-01-15T02:05:28.045Z,73.65
2024-01-15T02:07:55.235Z,73.87
2024-01-15T02:10:22.214Z,74.56
2024-01-15T02:12:49.840Z,75.85
2024-01-15T02:15:17.123Z,75.62
2024-01-15T02:18:08.340Z,75.29
2024-01-15T02:20:35.845Z,75.13
2024-01-15T02:23:16.681Z,75.25
2024-01-15T02:25:48.357Z,75.08
2024-01-15T02:28:18.462Z,74.57
2024-01-15T02:30:46.262Z,74.50
2024-01-15T02:33:14.166Z,73.76
2024-01-15T02:35:41.743Z,73.45
2024-01-15T02:38:09.300Z,74.10
2024-01-15T02:40:36.923Z,72.27
2024-01-15T02:43:04.209Z,71.59
2024-01-15T02:45:31.752Z,71.01
2024-01-15T02:47:58.760Z,70.35
2024-01-15T02:50:25.762Z,70.99
2024-01-15T02:52:53.421Z,72.87
2024-01-15T02:55:20.386Z,72.46
2024-01-15T02:57:47.582Z,72.73
2024-01-15T03:00:15.323Z,71.16
2024-01-15T03:02:48.652Z,72.04
2024-01-15T03:05:16.386Z,71.55
2024-01-15T03:07:44.280Z,75.02
2024-01-15T03:10:11.264Z,73.73
2024-01-15T03:12:38.425Z,73.42
2024-01-15T03:15:06.496Z,74.20
2024-01-15T03:17:33.684Z,73.88
2024-01-15T03:20:00.920Z,74.06
2024-01-15T03:22:27.938Z,75.62
2024-01-15T03:24:55.009Z,77.16
2024-01-15T03:27:21.899Z,75.25
2024-01-15T03:29:48.862Z,74.12
2024-01-15T03:32:17.422Z,75.93
2024-01-15T03:34:44.696Z,74.20
2024-01-15T03:37:11.698Z,76.11
2024-01-15T03:39:38.698Z,75.32
2024-01-15T03:42:06.126Z,75.51
2024-01-15T03:44:33.068Z,75.62
2024-01-15T03:47:00.186Z,76.44
2024-01-15T03:49:27.220Z,76.47
2024-01-15T03:51:54.259Z,76.61
2024-01-15T03:54:21.397Z,76.80
2024-01-15T03:56:48.580Z,76.05
2024-01-15T03:59:15.727Z,74.97
2024-01-15T04:01:42.688Z,72.96
2024-01-15T04:04:09.633Z,78.45
2024-01-15T04:06:36.759Z,77.24
2024-01-15T04:09:04.014Z,78.19
2024-01-15T04:11:31.038Z,78.87
2024-01-15T04:13:57.918Z,78.14
2024-01-15T04:16:24.934Z,76.55
2024-01-15T04:18:52.047Z,78.83
2024-01-15T04:21:19.848Z,80.60
2024-01-15T04:23:46.929Z,79.38
2024-01-15T04:26:13.951Z,78.04
2024-01-15T04:28:41.582Z,78.77
2024-01-15T04:31:08.775Z,78.46
2024-01-15T04:33:36.080Z,78.49
2024-01-15T04:36:05.215Z,77.31
2024-01-15T04:38:33.594Z,78.16
2024-01-15T04:41:00.561Z,78.30
2024-01-15T04:43:27.437Z,76.92
2024-01-15T04:45:54.332Z,78.73
2024-01-15T04:48:21.382Z,76.47
2024-01-15T04:50:49.150Z,75.99
2024-01-15T04:53:16.052Z,74.55
2024-01-15T04:55:44.079Z,78.30
2024-01-15T04:58:10.983Z,76.89
2024-01-15T05:00:37.885Z,79.22
2024-01-15T05:03:05.520Z,79.87
2024-01-15T05:05:32.453Z,79.99
2024-01-15T05:07:59.353Z,77.90
2024-01-15T05:10:26.559Z,79.15
2024-01-15T05:12:53.655Z,79.81
2024-01-15T05:15:21.044Z,83.14
2024-01-15T05:17:48.202Z,84.12
2024-01-15T05:20:15.842Z,83.53
2024-01-15T05:22:42.850Z,83.45
2024-01-15T05:25:09.702Z,82.90
2024-01-15T05:27:36.617Z,81.01
2024-01-15T05:30:05.053Z,83.03
2024-01-15T05:32:32.678Z,83.66
2024-01-15T05:34:59.678Z,83.67
2024-01-15T05:37:26.890Z,82.31
2024-01-15T05:39:53.904Z,84.09
2024-01-15T05:42:20.941Z,85.88
2024-01-15T05:44:47.860Z,84.30
2024-01-15T05:47:14.787Z,87.19
2024-01-15T05:49:42.018Z,85.84
2024-01-15T05:52:09.020Z,86.20
2024-01-15T05:54:36.103Z,88.82
2024-01-15T05:57:06.831Z,89.53
2024-01-15T05:59:37.479Z,89.52
2024-01-15T06:02:05.169Z,85.49
2024-01-15T06:04:32.254Z,87.04
2024-01-15T06:06:59.423Z,89.21
2024-01-15T06:09:26.475Z,86.35
2024-01-15T06:11:53.426Z,87.20
2024-01-15T06:14:20.337Z,88.22
2024-01-15T06:16:47.386Z,88.34
2024-01-15T06:19:14.343Z,87.93
2024-01-15T06:21:41.413Z,85.75
2024-01-15T06:24:08.330Z,88.35
2024-01-15T06:26:35.434Z,86.79
2024-01-15T06:29:04.184Z,85.62
2024-01-15T06:31:31.432Z,87.65
2024-01-15T06:33:58.684Z,87.14
2024-01-15T06:36:25.842Z,85.82
2024-01-15T06:38:52.833Z,85.37
2024-01-15T06:41:19.830Z,84.98
2024-01-15T06:43:46.726Z,86.74
2024-01-15T06:46:23.614Z,84.77
2024-01-15T06:48:52.878Z,85.46
2024-01-15T06:51:19.936Z,87.70
2024-01-15T06:53:46.977Z,87.63
2024-01-15T06:56:14.043Z,85.42
2024-01-15T06:58:41.142Z,96.49
2024-01-15T07:01:10.066Z,91.73
2024-01-15T07:03:37.077Z,86.01
2024-01-15T07:06:04.628Z,86.63
2024-01-15T07:08:31.583Z,95.27
2024-01-15T07:10:58.587Z,87.32
2024-01-15T07:13:25.692Z,87.21
2024-01-15T07:15:52.913Z,97.28
2024-01-15T07:18:20.035Z,88.21
2024-01-15T07:20:47.101Z,87.57
2024-01-15T07:23:14.083Z,86.78
2024-01-15T07:25:41.001Z,90.67
2024-01-15T07:28:07.996Z,89.32
2024-01-15T07:30:35.002Z,89.09
2024-01-15T07:33:02.229Z,90.05
2024-01-15T07:35:29.359Z,89.22
2024-01-15T07:37:56.282Z,89.89
2024-01-15T07:40:23.256Z,90.85
2024-01-15T07:42:50.342Z,89.77
2024-01-15T07:45:17.539Z,89.90
2024-01-15T07:47:45.708Z,91.39
2024-01-15T07:50:12.967Z,88.51
2024-01-15T07:52:45.166Z,90.55
2024-01-15T07:55:12.199Z,89.10
2024-01-15T07:57:39.229Z,87.24
2024-01-15T08:00:07.304Z,86.73
2024-01-15T08:02:37.118Z,86.91
2024-01-15T08:05:05.046Z,86.77
2024-01-15T08:07:32.125Z,86.23
2024-01-15T08:09:59.706Z,85.41
2024-01-15T08:12:26.859Z,85.84
2024-01-15T08:14:53.955Z,87.27
2024-01-15T08:17:21.004Z,87.58
2024-01-15T08:19:48.326Z,87.70
2024-01-15T08:22:15.421Z,87.62
2024-01-15T08:24:42.422Z,85.59
2024-01-15T08:27:09.976Z,85.19
2024-01-15T08:29:36.892Z,85.42
2024-01-15T08:32:04.192Z,86.16
2024-01-15T08:34:32.514Z,87.88
2024-01-15T08:36:59.586Z,86.70
2024-01-15T08:39:26.484Z,84.11
2024-01-15T08:41:53.415Z,84.67
2024-01-15T08:44:20.448Z,84.89
2024-01-15T08:46:47.380Z,88.33
2024-01-15T08:49:14.334Z,88.31
2024-01-15T08:51:41.434Z,88.66
2024-01-15T08:54:09.727Z,88.75
2024-01-15T08:56:36.787Z,90.26
2024-01-15T08:59:03.734Z,89.87
2024-01-15T09:01:31.138Z,89.95
2024-01-15T09:03:58.235Z,90.78
2024-01-15T09:06:25.340Z,91.43
2024-01-15T09:08:52.323Z,91.86
2024-01-15T09:11:19.223Z,91.73
2024-01-15T09:13:46.157Z,97.06
2024-01-15T09:16:13.181Z,96.88
2024-01-15T09:18:40.344Z,96.63
2024-01-15T09:21:09.458Z,97.02
2024-01-15T09:23:36.962Z,101.11
2024-01-15T09:26:03.962Z,101.44
2024-01-15T09:28:30.994Z,101.23
2024-01-15T09:30:58.003Z,104.08
2024-01-15T09:33:25.094Z,100.05
2024-01-15T09:35:52.106Z,99.98
2024-01-15T09:38:20.349Z,97.87
2024-01-15T09:40:48.208Z,96.35
2024-01-15T09:43:17.040Z,93.38
2024-01-15T09:45:45.265Z,94.45
2024-01-15T09:48:13.918Z,91.19
2024-01-15T09:50:41.057Z,91.56
2024-01-15T09:53:08.054Z,91.00
2024-01-15T09:55:35.308Z,93.46
2024-01-15T09:58:04.093Z,95.61
2024-01-15T10:00:34.284Z,96.63
2024-01-15T10:03:01.493Z,97.28
2024-01-15T10:05:28.906Z,93.98
2024-01-15T10:07:58.738Z,95.37
2024-01-15T10:10:27.584Z,96.58
2024-01-15T10:12:56.443Z,96.36
2024-01-15T10:15:25.076Z,98.66
2024-01-15T10:17:52.178Z,97.63
2024-01-15T10:20:19.466Z,97.79
2024-01-15T10:22:49.866Z,99.31
2024-01-15T10:25:17.409Z,98.99
2024-01-15T10:27:45.015Z,99.96
2024-01-15T10:30:15.265Z,100.90
2024-01-15T10:32:42.438Z,101.03
2024-01-15T10:35:09.771Z,100.27
2024-01-15T10:37:36.748Z,99.73
2024-01-15T10:40:07.766Z,98.18
2024-01-15T10:42:35.033Z,99.89
2024-01-15T10:45:02.363Z,100.66
2024-01-15T10:47:30.721Z,99.08
2024-01-15T10:49:58.292Z,99.50
2024-01-15T10:52:26.127Z,98.52
2024-01-15T10:54:54.445Z,99.93
2024-01-15T10:57:23.672Z,100.97
2024-01-15T10:59:50.600Z,101.59
2024-01-15T11:02:18.329Z,100.33
2024-01-15T11:04:45.584Z,100.41
2024-01-15T11:07:14.749Z,99.96
2024-01-15T11:09:41.683Z,98.11
2024-01-15T11:12:12.996Z,99.57
2024-01-15T11:14:49.507Z,99.82
2024-01-15T11:17:19.030Z,98.98
2024-01-15T11:19:49.424Z,95.60
2024-01-15T11:22:31.670Z,95.53
2024-01-15T11:25:05.595Z,93.07
2024-01-15T11:27:52.723Z,93.37
2024-01-15T11:32:48.715Z,92.14
2024-01-15T11:35:16.275Z,92.18
2024-01-15T11:37:52.642Z,90.17
2024-01-15T11:40:45.689Z,89.56
2024-01-15T11:43:14.602Z,89.38
2024-01-15T11:45:42.506Z,85.57
2024-01-15T11:48:15.861Z,88.18
2024-01-15T11:50:50.674Z,85.97
2024-01-15T11:53:46.662Z,81.26
2024-01-15T11:56:18.887Z,77.36
2024-01-15T11:58:46.345Z,75.42
2024-01-15T12:01:13.691Z,78.84
2024-01-15T12:03:40.742Z,77.43
2024-01-15T12:06:08.710Z,74.67
2024-01-15T12:08:36.500Z,76.21
2024-01-15T12:11:12.390Z,75.79
2024-01-15T12:13:39.416Z,72.48
2024-01-15T12:16:06.636Z,69.22
2024-01-15T12:18:33.809Z,71.80
2024-01-15T12:21:03.297Z,73.25
2024-01-15T12:23:30.906Z,71.63
2024-01-15T12:25:57.878Z,71.08
2024-01-15T12:28:24.860Z,69.83
2024-01-15T12:30:52.321Z,69.20
2024-01-15T12:33:21.527Z,69.51
2024-01-15T12:35:48.641Z,68.02
2024-01-15T12:38:15.589Z,67.40
2024-01-15T12:40:47.948Z,67.01
2024-01-15T12:43:14.968Z,65.97
2024-01-15T12:45:42.380Z,64.73
2024-01-15T12:48:10.287Z,63.71
2024-01-15T12:50:37.240Z,65.35
2024-01-15T12:53:04.392Z,63.94
2024-01-15T12:55:31.327Z,64.38
2024-01-15T12:57:58.329Z,65.46
2024-01-15T13:00:27.725Z,63.63
2024-01-15T13:02:56.130Z,60.42
2024-01-15T13:05:24.913Z,63.72
2024-01-15T13:07:52.287Z,66.06
2024-01-15T13:10:19.129Z,64.54
2024-01-15T13:12:46.261Z,64.95
2024-01-15T13:15:14.400Z,60.52
2024-01-15T13:17:43.653Z,58.47
2024-01-15T13:20:12.775Z,59.94
2024-01-15T13:22:41.677Z,60.58
2024-01-15T13:25:10.253Z,62.59
2024-01-15T13:27:38.736Z,62.74
2024-01-15T13:30:09.252Z,64.65
2024-01-15T13:32:36.855Z,64.63
2024-01-15T13:35:06.782Z,63.96
2024-01-15T13:37:33.890Z,64.12
2024-01-15T13:40:00.848Z,61.78
2024-01-15T13:42:28.732Z,60.42
2024-01-15T13:44:56.214Z,58.25
2024-01-15T13:47:23.617Z,56.33
2024-01-15T13:49:52.695Z,57.17
2024-01-15T13:52:21.217Z,58.36
2024-01-15T13:54:50.479Z,60.17
2024-01-15T13:57:20.462Z,60.05
2024-01-15T13:59:47.714Z,59.84
2024-01-15T14:02:19.081Z,58.15
2024-01-15T14:04:50.049Z,56.52
2024-01-15T14:07:17.493Z,58.03
2024-01-15T14:09:44.579Z,57.16
2024-01-15T14:12:11.651Z,56.59
2024-01-15T14:14:38.506Z,56.49
2024-01-15T14:17:05.524Z,56.15
2024-01-15T14:19:32.671Z,55.10
2024-01-15T14:21:59.718Z,56.36
2024-01-15T14:24:26.692Z,56.91
2024-01-15T14:26:53.595Z,58.26
2024-01-15T14:29:21.940Z,59.42
2024-01-15T14:31:49.024Z,57.50
2024-01-15T14:34:16.686Z,59.47
2024-01-15T14:36:43.768Z,59.75
2024-01-15T14:39:13.446Z,59.10
2024-01-15T14:41:40.559Z,61.72
2024-01-15T14:44:07.660Z,60.71
2024-01-15T14:46:34.541Z,60.56
2024-01-15T14:49:01.481Z,60.39
2024-01-15T14:51:28.469Z,60.52
2024-01-15T14:53:55.917Z,60.11
2024-01-15T14:56:23.413Z,58.41
2024-01-15T14:58:50.754Z,55.15
2024-01-15T15:01:17.982Z,54.47
2024-01-15T15:03:49.160Z,54.32
2024-01-15T15:06:17.731Z,54.16
2024-01-15T15:08:44.665Z,54.45
2024-01-15T15:11:12.689Z,58.95
2024-01-15T15:13:45.503Z,58.76
2024-01-15T15:16:14.900Z,55.62
2024-01-15T15:18:47.353Z,52.73
2024-01-15T15:21:14.650Z,51.56
2024-01-15T15:23:41.629Z,51.73
2024-01-15T15:26:08.564Z,51.00
2024-01-15T15:28:38.579Z,51.25
2024-01-15T15:31:12.395Z,50.79
2024-01-15T15:33:39.514Z,52.34
2024-01-15T15:36:06.825Z,50.43
2024-01-15T15:38:34.330Z,51.40
2024-01-15T15:41:02.310Z,51.07
2024-01-15T15:43:30.520Z,51.19
2024-01-15T15:46:01.206Z,49.91
2024-01-15T15:48:28.768Z,49.12
2024-01-15T15:51:01.017Z,49.94
2024-01-15T15:53:28.076Z,49.37
2024-01-15T15:55:55.024Z,53.13
2024-01-15T15:58:21.924Z,52.95
2024-01-15T16:00:49.185Z,53.97
2024-01-15T16:03:16.735Z,52.98
2024-01-15T16:05:51.825Z,52.81
2024-01-15T16:08:21.243Z,52.06
2024-01-15T16:10:52.892Z,51.10
2024-01-15T16:13:20.573Z,53.18
2024-01-15T16:15:47.799Z,53.62
2024-01-15T16:23:19.724Z,53.98
2024-01-15T16:23:34.627Z,56.48
2024-01-15T16:24:11.431Z,61.34
2024-01-15T16:26:38.333Z,56.73
2024-01-15T16:29:05.609Z,54.60
2024-01-15T16:31:32.700Z,54.86
2024-01-15T16:34:04.901Z,56.89
2024-01-15T16:36:34.052Z,56.24
2024-01-15T16:39:02.582Z,58.14
2024-01-15T16:41:30.645Z,59.02
2024-01-15T16:43:57.828Z,57.29
2024-01-15T16:46:24.834Z,57.29
2024-01-15T16:48:51.992Z,56.42
2024-01-15T16:51:18.981Z,55.43
2024-01-15T16:53:45.975Z,55.57
2024-01-15T16:56:12.888Z,55.13
2024-01-15T16:58:39.912Z,57.25
2024-01-15T17:01:09.986Z,56.46
2024-01-15T17:03:37.169Z,53.55
2024-01-15T17:06:04.274Z,55.13
2024-01-15T17:08:31.740Z,55.47
2024-01-15T17:11:01.381Z,54.39
2024-01-15T17:13:29.608Z,53.87
2024-01-15T17:15:56.637Z,51.92
2024-01-15T17:18:23.604Z,50.94
2024-01-15T17:20:50.549Z,48.69
2024-01-15T17:23:17.571Z,49.43
2024-01-15T17:25:44.544Z,50.97
2024-01-15T17:28:11.508Z,51.13
2024-01-15T17:30:38.427Z,49.73
2024-01-15T17:33:05.753Z,50.11
2024-01-15T17:35:32.922Z,49.81
2024-01-15T17:38:00.816Z,50.40
2024-01-15T17:40:27.834Z,50.94
2024-01-15T17:42:54.680Z,52.02
2024-01-15T17:45:22.081Z,52.34
2024-01-15T17:47:52.646Z,58.90
2024-01-15T17:50:20.152Z,56.04
2024-01-15T17:52:47.231Z,53.90
2024-01-15T17:55:14.471Z,57.35
2024-01-15T17:57:41.816Z,58.01
2024-01-15T18:00:10.204Z,55.10
2024-01-15T18:02:37.449Z,56.86
2024-01-15T18:05:05.500Z,57.08
2024-01-15T18:07:32.607Z,55.96
2024-01-15T18:10:00.011Z,57.33
2024-01-15T18:12:26.908Z,58.91
2024-01-15T18:14:54.798Z,60.06
2024-01-15T18:17:24.897Z,62.53
2024-01-15T18:19:53.199Z,63.20
2024-01-15T18:22:20.556Z,65.53
2024-01-15T18:24:47.484Z,64.70
2024-01-15T18:27:14.585Z,60.95
2024-01-15T18:29:41.654Z,60.40
2024-01-15T18:32:08.757Z,63.24
2024-01-15T18:34:37.218Z,68.83
2024-01-15T18:37:05.300Z,68.32
2024-01-15T18:39:32.241Z,64.64
2024-01-15T18:41:59.227Z,65.91
2024-01-15T18:44:26.202Z,73.32
2024-01-15T18:46:53.205Z,75.10
2024-01-15T18:49:22.125Z,63.67
2024-01-15T18:51:54.333Z,69.84
2024-01-15T18:54:22.504Z,65.40
2024-01-15T18:56:49.611Z,67.70
2024-01-15T18:59:16.773Z,70.67
2024-01-15T19:01:44.928Z,70.41
2024-01-15T19:04:13.449Z,64.51
2024-01-15T19:06:42.042Z,61.50
2024-01-15T19:09:11.447Z,59.57
2024-01-15T19:11:38.871Z,64.98
2024-01-15T19:14:07.050Z,66.14
2024-01-15T19:16:34.109Z,63.43
2024-01-15T19:19:01.106Z,62.35
2024-01-15T19:21:28.049Z,62.71
2024-01-15T19:23:55.081Z,64.97
2024-01-15T19:26:23.262Z,64.78
2024-01-15T19:28:50.311Z,61.88
2024-01-15T19:31:18.285Z,64.67
2024-01-15T19:33:45.326Z,64.71
2024-01-15T19:36:25.838Z,66.39
2024-01-15T19:38:54.132Z,67.05
2024-01-15T19:41:22.152Z,66.15
2024-01-15T19:43:49.335Z,66.42
2024-01-15T19:46:16.933Z,65.73
2024-01-15T19:48:44.071Z,64.62
2024-01-15T19:51:13.716Z,64.64
2024-01-15T19:53:42.389Z,65.51
2024-01-15T19:56:09.901Z,65.55
2024-01-15T19:58:38.326Z,66.89
2024-01-15T20:01:06.241Z,63.50
2024-01-15T20:03:33.352Z,60.36
2024-01-15T20:06:00.604Z,56.65
2024-01-15T20:08:27.738Z,63.13
2024-01-15T20:10:56.960Z,62.00
2024-01-15T20:13:23.945Z,63.20
2024-01-15T20:15:51.189Z,65.58
2024-01-15T20:18:19.088Z,64.96
2024-01-15T20:20:46.353Z,73.66
2024-01-15T20:23:13.473Z,72.97
2024-01-15T20:25:40.486Z,65.38
2024-01-15T20:28:07.867Z,65.91
2024-01-15T20:30:35.037Z,71.55
2024-01-15T20:33:02.423Z,72.15
2024-01-15T20:35:30.042Z,74.15
2024-01-15T20:37:58.520Z,76.24
2024-01-15T20:40:25.869Z,74.94
2024-01-15T20:42:53.151Z,75.84
2024-01-15T20:45:20.191Z,77.92
2024-01-15T20:47:47.194Z,74.93
2024-01-15T20:50:14.470Z,76.10
2024-01-15T20:52:41.535Z,74.29
2024-01-15T20:55:10.203Z,74.66
2024-01-15T20:57:37.476Z,72.47
2024-01-15T21:00:08.325Z,72.01
2024-01-15T21:02:37.818Z,69.54
2024-01-15T21:05:06.499Z,68.72
2024-01-15T21:07:33.657Z,73.12
2024-01-15T21:10:00.841Z,74.52
2024-01-15T21:12:28.045Z,75.41
2024-01-15T21:14:57.109Z,78.59
2024-01-15T21:17:24.741Z,84.26
2024-01-15T21:19:57.173Z,88.00
2024-01-15T21:22:24.567Z,83.84
2024-01-15T21:24:52.098Z,76.72
2024-01-15T21:27:19.199Z,76.75
2024-01-15T21:29:46.711Z,90.88
2024-01-15T21:32:13.771Z,89.29
2024-01-15T21:34:43.739Z,91.08
2024-01-15T21:37:11.004Z,92.90
2024-01-15T21:39:39.393Z,83.94
2024-01-15T21:42:06.576Z,81.22
2024-01-15T21:44:33.941Z,78.87
2024-01-15T21:47:01.273Z,84.20
2024-01-15T21:49:28.595Z,88.48
2024-01-15T21:51:55.772Z,83.51
2024-01-15T21:54:22.900Z,90.44
2024-01-15T21:56:50.073Z,89.47
2024-01-15T21:59:17.411Z,84.11
2024-01-15T22:01:44.566Z,88.04
2024-01-15T22:04:12.521Z,87.04
2024-01-15T22:06:39.895Z,85.44
2024-01-15T22:09:07.322Z,81.31
2024-01-15T22:11:34.486Z,80.98
2024-01-15T22:14:01.581Z,77.15
2024-01-15T22:16:28.649Z,75.86
2024-01-15T22:18:58.659Z,74.82
2024-01-15T22:21:27.337Z,75.21
2024-01-15T22:23:54.209Z,77.23
2024-01-15T22:26:21.257Z,76.14
2024-01-15T22:28:48.328Z,75.17
2024-01-15T22:31:15.238Z,74.43
2024-01-15T22:33:42.313Z,77.18
2024-01-15T22:36:09.426Z,76.91
2024-01-15T22:38:36.372Z,74.05
2024-01-15T22:41:03.857Z,71.38
2024-01-15T22:43:30.931Z,75.95
2024-01-15T22:45:57.880Z,78.38
2024-01-15T22:48:25.799Z,75.70
2024-01-15T22:50:52.819Z,78.14
2024-01-15T22:53:19.746Z,76.22
2024-01-15T22:55:46.761Z,76.40
2024-01-15T22:58:13.699Z,78.92
2024-01-15T23:00:44.912Z,79.05
2024-01-15T23:03:12.736Z,76.81
2024-01-15T23:05:40.179Z,74.18
2024-01-15T23:08:07.294Z,75.18
2024-01-15T23:10:34.246Z,77.16
2024-01-15T23:13:01.133Z,79.17
2024-01-15T23:15:29.719Z,79.40
2024-01-15T23:18:02.827Z,77.96
2024-01-15T23:20:29.904Z,76.69
2024-01-15T23:22:57.108Z,77.11
2024-01-15T23:25:24.055Z,72.85
2024-01-15T23:27:51.080Z,73.11
2024-01-15T23:30:18.291Z,74.10
2024-01-15T23:32:45.353Z,75.12
2024-01-15T23:35:13.109Z,75.40
2024-01-15T23:37:40.864Z,75.37
2024-01-15T23:40:09.340Z,75.75
2024-01-15T23:42:36.475Z,74.59
2024-01-15T23:45:03.786Z,73.98
2024-01-15T23:47:30.846Z,71.70
2024-01-15T23:49:57.877Z,73.31
2024-01-15T23:52:24.843Z,72.18
2024-01-15T23:54:52.364Z,74.23
2024-01-15T23:57:19.286Z,76.44
2024-01-15T23:59:46.227Z,75.09
